createdAt,value
2022-10-01T00:00:58.250Z,100207.44
2022-10-01T00:06:15.529Z,100191.94
2022-10-01T00:11:32.591Z,100183.94
2022-10-01T00:16:34.382Z,100185.06
2022-10-01T00:21:42.944Z,100172.75
2022-10-01T00:26:44.315Z,100180.44
2022-10-01T00:31:45.723Z,100189.97
2022-10-01T00:36:47.211Z,100190.09
2022-10-01T00:41:48.618Z,100180.66
2022-10-01T00:46:51.545Z,100168.34
2022-10-01T00:51:57.221Z,100157.81
2022-10-01T00:57:00.631Z,100146.56
2022-10-01T01:02:02.071Z,100139.22
2022-10-01T01:07:04.705Z,100125.16
2022-10-01T01:12:31.301Z,100113.03
2022-10-01T01:17:48.515Z,100100.91
2022-10-01T01:23:19.659Z,100078.19
2022-10-01T01:28:39.544Z,100071.22
2022-10-01T01:33:45.075Z,100058.16
2022-10-01T01:38:51.797Z,100054.16
2022-10-01T01:43:56.829Z,100047.19
2022-10-01T01:49:00.964Z,100027.47
2022-10-01T01:54:02.788Z,100011.31
2022-10-01T01:59:04.622Z,99990.69
2022-10-01T02:04:19.863Z,99963.38
2022-10-01T02:09:37.109Z,99950.75
2022-10-01T02:15:07.689Z,99927.69
2022-10-01T02:20:20.741Z,99920.75
2022-10-01T02:25:28.998Z,99911.13
2022-10-01T02:30:33.154Z,99916.31
2022-10-01T02:35:36.888Z,99910.28
2022-10-01T02:40:42.371Z,99927.19
2022-10-01T02:45:47.413Z,99930.28
2022-10-01T02:50:53.849Z,99941.41
2022-10-01T02:55:56.686Z,99942.88
2022-10-01T03:00:58.112Z,99956.69
2022-10-01T03:05:59.456Z,99931.09
2022-10-01T03:11:00.812Z,99923.94
2022-10-01T03:16:02.274Z,99911.31
2022-10-01T03:21:03.801Z,99918.25
2022-10-01T03:26:05.223Z,99918.50
2022-10-01T03:31:08.863Z,99891.75
2022-10-01T03:36:10.414Z,99872.66
2022-10-01T03:41:11.804Z,99875.22
2022-10-01T03:46:13.730Z,99858.97
2022-10-01T03:51:19.666Z,99855.72
2022-10-01T03:56:21.395Z,99870.97
2022-10-01T04:01:23.047Z,99832.44
2022-10-01T04:06:25.002Z,99819.94
2022-10-01T04:11:26.343Z,99805.38
2022-10-01T04:16:28.248Z,99805.81
2022-10-01T04:21:29.660Z,99794.47
2022-10-01T04:26:31.045Z,99759.59
2022-10-01T04:31:32.880Z,99723.25
2022-10-01T04:36:34.415Z,99733.34
2022-10-01T04:41:36.015Z,99712.25
2022-10-01T04:46:37.555Z,99786.03
2022-10-01T04:51:38.897Z,99797.72
2022-10-01T04:56:40.252Z,99823.31
2022-10-01T05:01:41.659Z,99811.28
2022-10-01T05:06:43.179Z,99823.91
2022-10-01T05:11:44.520Z,99804.09
2022-10-01T05:16:46.169Z,99797.25
2022-10-01T05:21:47.644Z,99788.38
2022-10-01T05:26:48.997Z,99783.69
2022-10-01T05:31:50.415Z,99772.56
2022-10-01T05:36:51.891Z,99796.44
2022-10-01T05:41:53.229Z,99794.94
2022-10-01T05:46:54.743Z,99792.75
2022-10-01T05:51:56.077Z,99796.69
2022-10-01T05:56:57.506Z,99813.84
2022-10-01T06:01:59.001Z,99809.53
2022-10-01T06:07:00.468Z,99814.19
2022-10-01T06:12:01.899Z,99821.47
2022-10-01T06:17:03.252Z,99823.09
2022-10-01T06:22:04.630Z,99819.84
2022-10-01T06:27:06.072Z,99824.72
2022-10-01T06:32:07.860Z,99841.88
2022-10-01T06:37:09.279Z,99837.59
2022-10-01T06:42:12.163Z,99836.28
2022-10-01T06:47:13.685Z,99840.59
2022-10-01T06:52:16.535Z,99840.69
2022-10-01T06:57:17.968Z,99855.75
2022-10-01T07:02:25.523Z,99849.38
2022-10-01T07:07:44.812Z,99848.13
2022-10-01T07:12:46.919Z,99848.13
2022-10-01T07:17:50.302Z,99849.00
2022-10-01T07:22:57.540Z,99854.41
2022-10-01T07:28:01.758Z,99863.97
2022-10-01T07:33:03.279Z,99858.00
2022-10-01T07:38:05.154Z,99853.78
2022-10-01T07:43:07.016Z,99856.91
2022-10-01T07:48:08.396Z,99865.00
2022-10-01T07:53:12.874Z,99878.38
2022-10-01T07:58:14.336Z,99869.19
2022-10-01T08:03:22.170Z,99869.47
2022-10-01T08:08:23.575Z,99868.72
2022-10-01T08:13:25.131Z,99872.84
2022-10-01T08:18:26.562Z,99883.16
2022-10-01T08:23:29.542Z,99881.66
2022-10-01T08:28:31.064Z,99891.19
2022-10-01T08:33:32.523Z,99894.41
2022-10-01T08:38:34.649Z,99903.09
2022-10-01T08:43:41.229Z,99912.56
2022-10-01T08:49:03.497Z,99921.53
2022-10-01T08:54:23.258Z,99920.25
2022-10-01T08:59:42.771Z,99931.00
2022-10-01T09:04:44.209Z,99935.44
2022-10-01T09:09:54.059Z,99928.13
2022-10-01T09:14:55.407Z,99935.78
2022-10-01T09:20:18.902Z,99957.66
2022-10-01T09:25:30.816Z,99964.94
2022-10-01T09:36:50.126Z,99971.06
2022-10-01T09:42:01.809Z,99980.06
2022-10-01T09:47:42.912Z,99985.13
2022-10-01T09:52:52.847Z,99982.72
2022-10-01T09:58:27.751Z,99982.91
2022-10-01T10:08:58.345Z,100000.28
2022-10-01T10:14:02.221Z,99995.19
2022-10-01T10:19:07.277Z,100003.81
2022-10-01T10:24:23.971Z,100015.69
2022-10-01T10:29:34.311Z,100017.16
2022-10-01T10:34:44.273Z,100020.63
2022-10-01T10:39:50.885Z,100036.47
2022-10-01T10:44:55.781Z,100034.63
2022-10-01T10:50:01.119Z,100041.16
2022-10-01T10:55:21.545Z,100048.97
2022-10-01T11:00:24.933Z,100055.72
2022-10-01T11:05:29.513Z,100054.34
2022-10-01T11:10:35.589Z,100051.41
2022-10-01T11:16:01.273Z,100061.38
2022-10-01T11:21:08.154Z,100062.44
2022-10-01T11:26:26.060Z,100070.41
2022-10-01T11:31:58.850Z,100067.84
2022-10-01T11:37:18.596Z,100069.03
2022-10-01T11:42:52.310Z,100073.09
2022-10-01T11:48:06.691Z,100089.09
2022-10-01T11:53:33.726Z,100092.34
2022-10-01T12:04:39.420Z,100106.94
2022-10-01T12:10:18.195Z,100110.63
2022-10-01T12:15:45.756Z,100117.28
2022-10-01T12:20:57.563Z,100114.19
2022-10-01T12:26:17.830Z,100123.53
2022-10-01T12:31:33.187Z,100157.41
2022-10-01T12:36:57.917Z,100146.69
2022-10-01T12:42:17.803Z,100144.28
2022-10-01T12:47:46.614Z,100145.97
2022-10-01T12:53:12.411Z,100157.25
2022-10-01T12:58:52.668Z,100161.91
2022-10-01T13:04:12.775Z,100162.19
2022-10-01T13:09:19.999Z,100176.25
2022-10-01T13:14:22.996Z,100177.66
2022-10-01T13:19:47.253Z,100188.19
2022-10-01T13:25:08.757Z,100178.28
2022-10-01T13:30:19.617Z,100184.19
2022-10-01T13:35:49.163Z,100194.28
2022-10-01T13:40:57.722Z,100198.69
2022-10-01T13:46:11.146Z,100198.69
2022-10-01T13:51:15.083Z,100217.53
2022-10-01T13:56:34.827Z,100208.69
2022-10-01T14:01:42.095Z,100212.66
2022-10-01T14:06:47.249Z,100232.38
2022-10-01T14:11:53.531Z,100234.78
2022-10-01T14:16:55.499Z,100237.25
2022-10-01T14:22:27.866Z,100246.97
2022-10-01T14:27:45.059Z,100240.00
2022-10-01T14:33:05.037Z,100245.19
2022-10-01T14:38:18.108Z,100257.88
2022-10-01T14:43:22.430Z,100263.00
2022-10-01T14:48:26.191Z,100264.09
2022-10-01T14:53:31.910Z,100262.97
2022-10-01T14:58:37.579Z,100279.91
2022-10-01T15:03:40.118Z,100280.69
2022-10-01T15:08:44.138Z,100296.88
2022-10-01T15:13:47.951Z,100313.03
2022-10-01T15:18:56.156Z,100315.13
2022-10-01T15:23:57.822Z,100321.56
2022-10-01T15:29:06.745Z,100331.34
2022-10-01T15:34:12.619Z,100330.25
2022-10-01T15:39:33.243Z,100324.63
2022-10-01T15:44:38.574Z,100339.47
2022-10-01T15:49:40.162Z,100352.19
2022-10-01T15:54:43.672Z,100362.75
2022-10-01T15:59:46.240Z,100374.00
2022-10-01T16:04:47.978Z,100375.56
2022-10-01T16:09:57.195Z,100385.72
2022-10-01T16:15:02.571Z,100392.88
2022-10-01T16:20:16.032Z,100398.34
2022-10-01T16:25:23.376Z,100404.69
2022-10-01T16:30:28.486Z,100423.75
2022-10-01T16:35:32.559Z,100432.47
2022-10-01T16:40:39.136Z,100429.91
2022-10-01T16:45:41.834Z,100452.66
2022-10-01T16:50:44.209Z,100453.94
2022-10-01T16:55:47.903Z,100467.97
2022-10-01T17:00:49.425Z,100485.84
2022-10-01T17:05:50.842Z,100498.19
2022-10-01T17:10:55.373Z,100491.38
2022-10-01T17:15:57.189Z,100500.16
2022-10-01T17:20:58.629Z,100504.00
2022-10-01T17:26:00.025Z,100514.56
2022-10-01T17:31:01.476Z,100525.50
2022-10-01T17:36:06.828Z,100542.13
2022-10-01T17:41:08.218Z,100557.44
2022-10-01T17:46:09.618Z,100566.81
2022-10-01T17:51:11.418Z,100577.72
2022-10-01T17:56:15.800Z,100586.63
2022-10-01T18:01:19.975Z,100601.88
2022-10-01T18:06:23.181Z,100608.97
2022-10-01T18:11:26.809Z,100628.47
2022-10-01T18:16:28.359Z,100645.09
2022-10-01T18:21:29.890Z,100654.78
2022-10-01T18:26:31.966Z,100667.06
2022-10-01T18:31:37.069Z,100678.38
2022-10-01T18:36:58.911Z,100680.56
2022-10-01T18:42:22.438Z,100690.09
2022-10-01T18:47:33.391Z,100696.94
2022-10-01T18:52:43.866Z,100714.34
2022-10-01T18:58:07.232Z,100713.19
2022-10-01T19:03:41.182Z,100718.34
2022-10-01T19:08:48.955Z,100737.72
2022-10-01T19:14:18.443Z,100738.84
2022-10-01T19:19:57.465Z,100750.25
2022-10-01T19:25:27.011Z,100755.75
2022-10-01T19:30:42.673Z,100758.34
2022-10-01T19:35:50.243Z,100765.19
2022-10-01T19:41:15.687Z,100762.22
2022-10-01T19:46:31.904Z,100761.69
2022-10-01T19:51:40.653Z,100763.81
2022-10-01T19:56:48.498Z,100780.56
2022-10-01T20:01:58.297Z,100790.28
2022-10-01T20:07:10.881Z,100784.00
2022-10-01T20:12:26.113Z,100796.41
2022-10-01T20:17:56.369Z,100800.56
2022-10-01T20:23:06.039Z,100820.75
2022-10-01T20:28:39.780Z,100829.78
2022-10-01T20:33:52.501Z,100821.53
2022-10-01T20:39:02.391Z,100828.75
2022-10-01T20:44:06.613Z,100827.53
2022-10-01T20:49:20.618Z,100835.38
2022-10-01T20:54:30.772Z,100845.84
2022-10-01T20:59:43.748Z,100851.59
2022-10-01T21:04:52.943Z,100854.88
2022-10-01T21:09:57.883Z,100866.34
2022-10-01T21:15:01.849Z,100872.25
2022-10-01T21:20:32.257Z,100876.03
2022-10-01T21:25:43.298Z,100891.84
2022-10-01T21:31:06.168Z,100887.13
2022-10-01T21:36:23.941Z,100884.91
2022-10-01T21:41:36.306Z,100900.50
2022-10-01T21:47:07.729Z,100890.84
2022-10-01T21:52:15.200Z,100901.69
2022-10-01T21:57:35.425Z,100912.81
2022-10-01T22:02:38.160Z,100922.66
2022-10-01T22:07:52.316Z,100928.81
2022-10-01T22:12:56.503Z,100931.69
2022-10-01T22:18:02.223Z,100937.22
2022-10-01T22:23:09.055Z,100946.25
2022-10-01T22:28:17.588Z,100958.56
2022-10-01T22:33:26.260Z,100959.78
2022-10-01T22:38:48.310Z,100964.09
2022-10-01T22:43:49.766Z,100971.50
2022-10-01T22:48:55.297Z,100971.88
2022-10-01T22:54:34.167Z,100966.16
2022-10-01T22:59:52.894Z,100968.59
2022-10-01T23:05:29.416Z,100981.34
2022-10-01T23:10:59.097Z,100977.63
2022-10-01T23:16:06.445Z,100976.78
2022-10-01T23:21:35.999Z,100980.91
2022-10-01T23:26:46.328Z,100966.94
2022-10-01T23:32:07.819Z,100966.13
2022-10-01T23:37:34.994Z,100975.56
2022-10-01T23:43:10.443Z,100971.50
2022-10-01T23:48:23.296Z,100981.72
2022-10-01T23:53:37.090Z,100986.66
2022-10-01T23:58:45.856Z,100981.72
